Arvin, California
Current Conditions -  °F | °C
As of 9:54 PM on Sunday 21 Dec 2014 (Local Time) from KBFL Reporting Station
Overcast Overcast  
Wind Chill: 57°   Ceiling: 1600
Heat Index: 57°   Visibility: 10mi
Dew Point: 52°   Wind: 0mph
Humidity: 83%   Direction: NA
Pressure: 30.28"   Gusts: NA
Location:  35.21°N, 118.82°W
Report Text: KBFL 220554Z 00000KT 10SM BKN016 OVC039 14/11 A3028 RMK AO2 SLP250 T01390111 10150 20133 51007
Loading
Personal Weather Stations






























Interactive Weather Map New forecast layout! Learn more

10-Day Weather Forecast

Advertisements
Track Severe Weather on mobile